Auburn, Missouri
Current Conditions -  °F | °C
As of 2:07 PM on Thursday 29 Jan 2015 (Local Time) from KSET Reporting Station
Overcast Overcast  
Wind Chill:   Ceiling: 3400
Heat Index:   Visibility: 10mi
Dew Point: -1°   Wind: 14mph
Humidity: 67%   Direction: 320°NW
Pressure: 30.18"   Gusts: NA
Location:  39.1646°N, 90.8436°W
Report Text: KSET 292007Z AUTO 32012KT 10SM OVC034 05/M01 A3018 RMK AO2 T00501006
Loading
Personal Weather Stations






























Interactive Weather Map New forecast layout! Learn more

10-Day Weather Forecast

Advertisements
Track Severe Weather on mobile